Time;durP1;ratioP1;P1;durP2;ratioP2;P2;SDS_P1;SDS_P2;PMS_P1;PMS_P2;Temp;Humidity;BMP_temperature;BMP_pressure;BME280_temperature;BME280_humidity;BME280_pressure;Samples;Min_cycle;Max_cycle;Signal;HPM_P1;HPM_P2
2024/04/24 00:02:15;;;;;;;19.30;14.83;;;4.60;64.40;;;;;;5274151;26;20259;-66
2024/04/24 00:04:44;;;;;;;17.33;15.03;;;4.60;65.00;;;;;;5293963;26;20232;-65
2024/04/24 00:07:12;;;;;;;18.33;15.03;;;4.60;65.10;;;;;;5324466;26;20310;-66
2024/04/24 00:09:40;;;;;;;17.37;15.37;;;4.60;64.50;;;;;;5332364;26;20236;-66
2024/04/24 00:12:09;;;;;;;16.33;14.17;;;4.60;64.70;;;;;;5323940;26;20276;-66
2024/04/24 00:14:37;;;;;;;16.57;14.83;;;4.60;65.30;;;;;;5307438;26;20337;-68
2024/04/24 00:17:05;;;;;;;17.13;14.43;;;4.60;64.50;;;;;;5311275;26;20354;-66
2024/04/24 00:19:33;;;;;;;16.40;14.63;;;4.60;64.80;;;;;;5320332;26;20685;-67
2024/04/24 00:22:02;;;;;;;17.00;14.90;;;4.60;64.80;;;;;;5316029;26;20253;-65
2024/04/24 00:24:30;;;;;;;16.13;14.30;;;4.70;64.70;;;;;;5332472;26;20241;-65
2024/04/24 00:26:58;;;;;;;18.03;14.33;;;4.70;63.60;;;;;;5328164;26;20237;-67
2024/04/24 00:29:26;;;;;;;17.10;14.43;;;4.70;64.80;;;;;;5290168;26;20304;-65
2024/04/24 00:31:55;;;;;;;17.27;14.47;;;4.70;64.30;;;;;;5333238;26;20292;-67
2024/04/24 00:34:23;;;;;;;19.30;15.23;;;4.70;64.10;;;;;;5324177;26;20294;-67
2024/04/24 00:36:51;;;;;;;15.87;14.23;;;4.70;64.10;;;;;;5314222;26;20373;-68
2024/04/24 00:39:20;;;;;;;16.40;13.67;;;4.70;64.10;;;;;;5317721;26;20242;-66
2024/04/24 00:41:48;;;;;;;16.93;14.10;;;4.70;64.10;;;;;;5321060;26;20866;-66
2024/04/24 00:44:16;;;;;;;16.37;13.73;;;4.80;64.00;;;;;;5321531;26;20238;-66
2024/04/24 00:46:44;;;;;;;17.13;14.03;;;4.70;63.70;;;;;;5323719;26;20309;-66
2024/04/24 00:49:12;;;;;;;15.00;13.50;;;4.70;64.00;;;;;;5302684;26;20859;-66
2024/04/24 00:51:41;;;;;;;16.93;14.30;;;4.60;64.00;;;;;;5317367;26;20355;-66
2024/04/24 00:54:09;;;;;;;15.37;13.83;;;4.70;63.30;;;;;;5320122;26;20242;-66
2024/04/24 00:56:38;;;;;;;15.53;13.77;;;4.70;64.20;;;;;;5310630;26;20308;-67
2024/04/24 00:59:06;;;;;;;16.93;14.10;;;4.70;64.00;;;;;;5321866;26;20234;-67
2024/04/24 01:01:34;;;;;;;17.30;14.50;;;4.60;63.90;;;;;;5324523;26;20298;-67
2024/04/24 01:04:02;;;;;;;15.80;13.27;;;4.50;63.80;;;;;;5323374;26;20481;-67
2024/04/24 01:06:30;;;;;;;15.20;13.60;;;4.50;63.80;;;;;;5308149;26;20732;-67
2024/04/24 01:08:59;;;;;;;16.27;14.57;;;4.60;64.00;;;;;;5307336;26;20656;-67
2024/04/24 01:11:28;;;;;;;15.03;13.43;;;4.60;63.90;;;;;;5329701;26;20346;-67
2024/04/24 01:13:57;;;;;;;15.57;13.70;;;4.60;64.50;;;;;;5306066;26;20350;-66
2024/04/24 01:16:25;;;;;;;15.50;13.73;;;4.60;63.70;;;;;;5322153;26;20306;-67
2024/04/24 01:18:53;;;;;;;16.27;13.87;;;4.70;63.70;;;;;;5310713;26;20244;-66
2024/04/24 01:21:21;;;;;;;16.50;13.17;;;4.70;63.30;;;;;;5325252;26;20564;-67
2024/04/24 01:23:50;;;;;;;16.13;13.23;;;4.70;63.30;;;;;;5330759;26;20302;-66
2024/04/24 01:26:18;;;;;;;15.07;13.40;;;4.60;63.20;;;;;;5286447;26;20319;-66
2024/04/24 01:28:46;;;;;;;17.60;14.50;;;4.60;64.00;;;;;;5328798;26;20356;-66
2024/04/24 01:31:14;;;;;;;16.37;14.53;;;4.60;64.20;;;;;;5313301;26;20366;-66
2024/04/24 01:33:40;;;;;;;14.30;12.80;;;4.70;64.20;;;;;;5324218;26;20847;-66
2024/04/24 01:36:08;;;;;;;16.60;14.70;;;4.70;64.00;;;;;;5327264;26;20245;-66
2024/04/24 01:38:36;;;;;;;18.23;14.43;;;4.70;64.30;;;;;;5330725;26;20360;-66
2024/04/24 01:41:04;;;;;;;16.20;13.70;;;4.60;64.90;;;;;;5330436;26;20354;-66
2024/04/24 01:43:34;;;;;;;16.37;14.17;;;4.60;64.40;;;;;;5291312;26;20340;-66
2024/04/24 01:46:03;;;;;;;14.13;12.63;;;4.60;64.40;;;;;;5330285;26;20316;-67
2024/04/24 01:48:31;;;;;;;15.20;13.33;;;4.60;64.10;;;;;;5302979;26;20247;-66
2024/04/24 02:07:21;;;;;;;16.17;14.03;;;4.50;64.00;;;;;;5667349;21;20273;-65
2024/04/24 02:09:46;;;;;;;17.17;14.67;;;4.50;64.00;;;;;;5300306;26;20252;-65
2024/04/24 02:12:15;;;;;;;16.37;14.37;;;4.50;64.30;;;;;;5357733;26;20295;-64
2024/04/24 02:14:40;;;;;;;15.57;13.93;;;4.50;64.00;;;;;;5294651;26;20258;-65
2024/04/24 02:17:08;;;;;;;16.80;14.07;;;4.50;64.00;;;;;;5296406;26;20239;-65
2024/04/24 02:19:37;;;;;;;17.23;13.97;;;4.40;64.50;;;;;;5320867;26;20760;-67
2024/04/24 02:22:05;;;;;;;16.87;13.60;;;4.40;64.70;;;;;;5290644;26;20255;-67
2024/04/24 02:27:17;;;;;;;16.43;14.47;;;4.40;64.20;;;;;;5345927;26;20334;-66
2024/04/24 02:29:45;;;;;;;15.67;13.30;;;4.50;64.40;;;;;;5327644;26;20297;-67
2024/04/24 02:32:13;;;;;;;17.30;14.13;;;4.50;64.70;;;;;;5337337;26;20293;-67
2024/04/24 02:34:42;;;;;;;15.43;13.80;;;4.50;64.40;;;;;;5322563;26;20351;-67
2024/04/24 02:37:10;;;;;;;15.80;14.03;;;4.50;64.10;;;;;;5347871;26;20279;-66
2024/04/24 02:39:38;;;;;;;16.23;13.43;;;4.50;64.40;;;;;;5315903;26;20246;-67
2024/04/24 02:42:07;;;;;;;16.97;13.97;;;4.50;64.10;;;;;;5326279;26;20311;-67
2024/04/24 02:44:35;;;;;;;16.80;14.87;;;4.50;63.60;;;;;;5310708;26;20300;-67
2024/04/24 02:47:03;;;;;;;17.40;14.27;;;4.50;63.60;;;;;;5314261;26;20301;-66
2024/04/24 02:49:28;;;;;;;16.20;14.17;;;4.40;63.70;;;;;;5326296;26;20250;-66
2024/04/24 02:51:57;;;;;;;15.73;13.77;;;4.50;64.20;;;;;;5312819;26;20346;-67
2024/04/24 02:54:25;;;;;;;16.60;14.80;;;4.30;64.70;;;;;;5332524;26;20386;-67
2024/04/24 02:56:53;;;;;;;15.27;13.07;;;4.30;64.20;;;;;;5325554;26;20242;-67
2024/04/24 02:59:21;;;;;;;17.53;14.67;;;4.40;64.60;;;;;;5332768;26;20355;-68
2024/04/24 03:01:49;;;;;;;17.00;14.00;;;4.50;64.80;;;;;;5324416;26;20313;-66
2024/04/24 03:04:18;;;;;;;17.40;14.60;;;4.50;64.60;;;;;;5318431;26;20378;-66
2024/04/24 03:06:46;;;;;;;18.13;14.73;;;4.50;65.50;;;;;;5308430;26;20245;-66
2024/04/24 03:09:14;;;;;;;16.43;14.10;;;4.40;65.00;;;;;;5318774;26;20293;-66
2024/04/24 03:11:42;;;;;;;16.50;14.43;;;4.40;64.90;;;;;;5315822;26;20264;-66
2024/04/24 03:14:11;;;;;;;17.00;13.93;;;4.50;64.40;;;;;;5299647;26;20746;-66
2024/04/24 03:16:39;;;;;;;16.70;13.73;;;4.60;63.90;;;;;;5346473;26;20241;-65
2024/04/24 03:19:08;;;;;;;16.97;14.30;;;4.50;63.80;;;;;;5331592;26;20661;-65
2024/04/24 03:21:36;;;;;;;18.63;14.33;;;4.50;64.20;;;;;;5345570;26;20241;-66
2024/04/24 03:24:04;;;;;;;16.23;14.33;;;4.50;64.20;;;;;;5336760;26;20273;-65
2024/04/24 03:26:33;;;;;;;16.63;13.13;;;4.50;64.10;;;;;;5329457;26;20652;-66
2024/04/24 03:29:01;;;;;;;17.03;14.63;;;4.50;64.40;;;;;;5307462;26;20256;-66
2024/04/24 03:31:29;;;;;;;15.90;13.70;;;4.50;64.00;;;;;;5337629;26;20245;-65
2024/04/24 03:33:57;;;;;;;15.50;13.70;;;4.50;64.50;;;;;;5294549;26;20796;-65
2024/04/24 03:36:26;;;;;;;16.77;14.10;;;4.50;63.60;;;;;;5323753;26;20241;-66
2024/04/24 03:38:54;;;;;;;17.57;13.87;;;4.50;64.20;;;;;;5345970;26;20708;-65
2024/04/24 03:41:22;;;;;;;17.57;14.13;;;4.60;64.20;;;;;;5340632;26;20244;-66
2024/04/24 03:43:50;;;;;;;16.93;14.03;;;4.50;63.80;;;;;;5296502;26;20316;-65
2024/04/24 03:46:19;;;;;;;16.70;13.47;;;4.50;63.90;;;;;;5315691;26;20305;-66
2024/04/24 03:48:47;;;;;;;16.40;14.03;;;4.50;63.60;;;;;;5309618;26;20285;-65
2024/04/24 03:51:15;;;;;;;17.67;13.97;;;4.50;63.30;;;;;;5339495;26;20360;-65
2024/04/24 03:53:43;;;;;;;16.00;13.13;;;4.60;63.20;;;;;;5324842;26;20241;-65
2024/04/24 03:56:12;;;;;;;17.07;14.77;;;4.50;63.10;;;;;;5312344;26;20371;-65
2024/04/24 03:58:40;;;;;;;17.27;14.40;;;4.60;63.20;;;;;;5330658;26;20787;-66
2024/04/24 04:01:08;;;;;;;18.00;14.80;;;4.60;63.20;;;;;;5319240;26;20289;-67
2024/04/24 04:03:37;;;;;;;16.47;14.77;;;4.60;63.20;;;;;;5302790;26;20386;-67
2024/04/24 04:06:05;;;;;;;17.00;14.17;;;4.50;63.80;;;;;;5317667;26;20272;-65
2024/04/24 04:08:33;;;;;;;16.07;14.17;;;4.60;63.20;;;;;;5299935;26;20345;-65
2024/04/24 04:11:02;;;;;;;17.57;13.93;;;4.60;63.20;;;;;;5320127;26;20856;-65
2024/04/24 04:13:30;;;;;;;16.80;14.90;;;4.60;63.20;;;;;;5329720;26;20720;-65
2024/04/24 04:15:55;;;;;;;17.30;14.83;;;4.70;63.30;;;;;;5315691;26;20243;-66
2024/04/24 04:18:24;;;;;;;16.97;14.23;;;4.60;63.20;;;;;;5319014;26;20247;-66
2024/04/24 04:20:52;;;;;;;17.50;15.03;;;4.60;63.00;;;;;;5310239;26;20242;-66
2024/04/24 04:23:20;;;;;;;17.50;14.50;;;4.60;63.20;;;;;;5342647;26;20360;-65
2024/04/24 04:25:48;;;;;;;14.80;13.23;;;4.60;63.20;;;;;;5303091;26;20250;-67
2024/04/24 04:28:17;;;;;;;16.47;14.70;;;4.60;63.20;;;;;;5307254;26;20258;-65
2024/04/24 04:30:45;;;;;;;15.63;13.23;;;4.60;63.20;;;;;;5323893;26;20241;-65
2024/04/24 04:33:13;;;;;;;15.47;13.73;;;4.60;63.20;;;;;;5318265;26;20290;-65
2024/04/24 04:35:41;;;;;;;16.17;13.43;;;4.60;63.20;;;;;;5332838;26;20713;-67
2024/04/24 04:38:09;;;;;;;15.93;13.60;;;4.60;63.20;;;;;;5327355;26;20294;-65
2024/04/24 04:40:37;;;;;;;17.07;13.87;;;4.60;63.30;;;;;;5333729;26;20304;-66
2024/04/24 04:43:06;;;;;;;15.50;13.90;;;4.60;63.20;;;;;;5304087;26;20315;-66
2024/04/24 04:45:34;;;;;;;16.27;13.90;;;4.60;63.20;;;;;;5327923;26;20308;-66
2024/04/24 04:48:04;;;;;;;16.90;13.67;;;4.70;63.30;;;;;;5342062;26;20281;-66
2024/04/24 04:50:33;;;;;;;15.87;13.60;;;4.60;63.20;;;;;;5284951;26;20854;-66
2024/04/24 04:53:01;;;;;;;18.57;13.70;;;4.60;63.70;;;;;;5323895;26;20300;-67
2024/04/24 04:55:26;;;;;;;17.03;13.27;;;4.60;63.80;;;;;;5343475;26;20308;-66
2024/04/24 04:57:55;;;;;;;14.83;13.20;;;4.60;63.90;;;;;;5327632;26;20692;-67
2024/04/24 05:00:23;;;;;;;16.50;14.03;;;4.60;63.20;;;;;;5341340;26;20621;-67
2024/04/24 05:02:51;;;;;;;16.40;14.70;;;4.60;63.20;;;;;;5313689;26;20373;-66
2024/04/24 05:05:19;;;;;;;15.03;13.43;;;4.60;63.20;;;;;;5300839;26;20367;-66
2024/04/24 05:07:45;;;;;;;16.03;13.63;;;4.60;63.20;;;;;;5298895;26;20246;-66
2024/04/24 05:10:13;;;;;;;15.60;13.57;;;4.70;63.30;;;;;;5320943;26;20251;-67
2024/04/24 05:12:42;;;;;;;15.43;13.40;;;4.80;63.40;;;;;;5333025;26;20285;-66
2024/04/24 05:15:08;;;;;;;17.13;13.67;;;4.70;63.30;;;;;;5324693;26;20359;-67
2024/04/24 05:17:36;;;;;;;17.37;13.93;;;4.80;63.40;;;;;;5344905;26;20654;-67
2024/04/24 05:20:05;;;;;;;17.20;13.97;;;4.80;63.10;;;;;;5324007;26;20276;-65
2024/04/24 05:22:46;;;;;;;16.73;14.20;;;4.90;63.10;;;;;;5294831;26;20238;-66
2024/04/24 05:25:14;;;;;;;17.97;13.03;;;4.80;63.40;;;;;;5302087;26;20265;-66
2024/04/24 05:30:26;;;;;;;18.10;13.53;;;4.80;63.40;;;;;;5316557;26;20278;-66
2024/04/24 05:32:54;;;;;;;18.80;14.23;;;4.90;63.40;;;;;;5332311;26;20286;-66
2024/04/24 05:35:23;;;;;;;15.40;13.77;;;4.90;63.40;;;;;;5330010;26;20246;-67
2024/04/24 05:37:51;;;;;;;15.80;13.77;;;4.90;62.60;;;;;;5298832;26;20306;-67
2024/04/24 05:40:19;;;;;;;17.80;13.83;;;5.00;61.80;;;;;;5335356;26;20229;-66
2024/04/24 05:42:48;;;;;;;15.77;13.57;;;5.00;62.30;;;;;;5321622;26;20245;-67
2024/04/24 05:45:16;;;;;;;17.53;14.43;;;5.00;62.20;;;;;;5306731;26;20342;-67
2024/04/24 05:47:45;;;;;;;17.47;14.27;;;5.10;62.30;;;;;;5304646;26;20727;-67
2024/04/24 05:50:13;;;;;;;15.40;13.33;;;5.00;62.50;;;;;;5325503;26;20238;-67
2024/04/24 05:52:42;;;;;;;15.43;13.63;;;5.00;61.80;;;;;;5343728;26;20245;-67
2024/04/24 05:55:11;;;;;;;16.87;13.40;;;5.10;62.30;;;;;;5294547;26;20386;-66
2024/04/24 05:57:39;;;;;;;15.93;13.77;;;5.20;61.70;;;;;;5295447;26;20273;-67
2024/04/24 06:00:08;;;;;;;16.73;14.17;;;5.20;61.60;;;;;;5299697;26;20310;-66
2024/04/24 06:02:36;;;;;;;17.07;13.70;;;5.20;61.10;;;;;;5292626;26;20246;-68
2024/04/24 06:05:04;;;;;;;16.40;13.50;;;5.30;61.20;;;;;;5302875;26;20241;-67
2024/04/24 06:07:32;;;;;;;15.53;13.67;;;5.30;61.50;;;;;;5311321;26;20305;-67
2024/04/24 06:10:00;;;;;;;16.33;13.27;;;5.30;60.90;;;;;;5311686;26;20304;-67
2024/04/24 06:12:29;;;;;;;18.43;14.27;;;5.30;60.40;;;;;;5342450;26;20313;-67
2024/04/24 06:14:57;;;;;;;15.63;13.90;;;5.20;59.90;;;;;;5308168;26;20298;-66
2024/04/24 06:17:25;;;;;;;18.07;14.43;;;5.30;60.50;;;;;;5312489;26;20344;-66
2024/04/24 06:19:54;;;;;;;18.03;14.20;;;5.30;60.00;;;;;;5305138;26;20310;-66
2024/04/24 06:22:23;;;;;;;14.73;12.50;;;5.40;60.40;;;;;;5297100;26;20634;-67
2024/04/24 06:24:51;;;;;;;16.73;14.10;;;5.40;59.90;;;;;;5311454;26;20253;-66
2024/04/24 06:27:19;;;;;;;16.10;13.53;;;5.50;59.50;;;;;;5298472;26;20342;-67
2024/04/24 06:29:47;;;;;;;16.63;13.93;;;5.50;59.30;;;;;;5320093;26;20362;-67
2024/04/24 06:32:16;;;;;;;16.90;13.37;;;5.50;59.40;;;;;;5327843;26;20298;-67
2024/04/24 06:34:45;;;;;;;14.70;12.67;;;5.50;59.40;;;;;;5328605;26;20334;-67
2024/04/24 06:37:13;;;;;;;15.10;13.10;;;5.50;59.40;;;;;;5304641;26;20284;-67
2024/04/24 06:39:41;;;;;;;16.53;13.17;;;5.50;59.70;;;;;;5292168;26;20709;-66
2024/04/24 06:42:10;;;;;;;15.37;13.77;;;5.60;59.50;;;;;;5304793;26;20247;-67
2024/04/24 06:44:38;;;;;;;15.67;12.63;;;5.60;59.10;;;;;;5297538;26;20287;-66
2024/04/24 06:47:06;;;;;;;14.20;11.90;;;5.70;58.40;;;;;;5313342;26;20858;-67
2024/04/24 06:49:35;;;;;;;15.07;12.53;;;5.80;57.90;;;;;;5275743;26;20247;-66
2024/04/24 06:52:03;;;;;;;15.63;12.90;;;5.70;58.00;;;;;;5292660;26;20305;-67
2024/04/24 06:54:32;;;;;;;14.93;12.63;;;5.80;58.20;;;;;;5315311;26;20277;-66
2024/04/24 06:57:00;;;;;;;14.53;12.53;;;5.90;58.10;;;;;;5319000;26;20238;-66
2024/04/24 06:59:28;;;;;;;15.10;12.57;;;5.90;57.90;;;;;;5317302;26;20385;-66
2024/04/24 07:01:56;;;;;;;14.70;12.50;;;5.90;57.80;;;;;;5308356;26;20351;-66
2024/04/24 07:04:24;;;;;;;12.97;11.63;;;6.00;57.90;;;;;;5291525;26;20979;-66
2024/04/24 07:06:53;;;;;;;14.53;12.73;;;6.20;57.50;;;;;;5297134;26;20286;-66
2024/04/24 07:09:21;;;;;;;17.10;14.67;;;6.40;58.00;;;;;;5306613;26;20252;-65
2024/04/24 07:11:50;;;;;;;13.37;11.50;;;6.70;56.70;;;;;;5288191;26;20812;-66
2024/04/24 07:14:18;;;;;;;13.87;11.93;;;6.80;55.10;;;;;;5311714;26;20250;-66
2024/04/24 07:16:46;;;;;;;12.20;10.93;;;6.70;54.60;;;;;;5314169;26;20267;-65
2024/04/24 07:19:14;;;;;;;12.43;10.13;;;6.80;55.20;;;;;;5272048;26;20592;-66
2024/04/24 07:21:43;;;;;;;13.87;11.07;;;6.90;54.50;;;;;;5282707;26;20364;-66
2024/04/24 07:24:11;;;;;;;13.20;11.73;;;6.90;54.00;;;;;;5292902;26;20377;-65
2024/04/24 07:26:39;;;;;;;13.03;11.17;;;7.00;54.40;;;;;;5292476;26;20295;-66
2024/04/24 07:29:08;;;;;;;14.27;11.53;;;7.10;54.20;;;;;;5288082;26;20520;-67
2024/04/24 07:31:36;;;;;;;13.20;11.00;;;7.10;52.80;;;;;;5315412;26;20643;-66
2024/04/24 07:34:04;;;;;;;12.10;10.40;;;6.90;53.30;;;;;;5297820;26;20244;-67
2024/04/24 07:36:33;;;;;;;12.73;10.70;;;6.70;53.00;;;;;;5296002;26;20305;-66
2024/04/24 07:39:01;;;;;;;14.10;11.07;;;6.80;52.90;;;;;;5295224;26;20354;-65
2024/04/24 07:41:30;;;;;;;13.20;11.27;;;6.80;53.80;;;;;;5306768;26;20314;-66
2024/04/24 07:43:58;;;;;;;13.10;10.10;;;7.00;53.10;;;;;;5299171;26;20362;-66
2024/04/24 07:46:27;;;;;;;14.87;9.70;;;7.10;52.90;;;;;;5299785;26;20728;-65
2024/04/24 07:48:55;;;;;;;14.20;11.87;;;7.40;53.10;;;;;;5299223;26;20789;-66
2024/04/24 07:51:23;;;;;;;15.93;13.27;;;7.60;52.80;;;;;;5296140;26;20249;-66
2024/04/24 07:53:51;;;;;;;10.77;9.67;;;7.70;51.30;;;;;;5298970;26;20753;-66
2024/04/24 07:56:20;;;;;;;11.17;10.03;;;7.80;51.10;;;;;;5321779;26;20283;-67
2024/04/24 07:58:48;;;;;;;10.33;9.27;;;7.90;50.20;;;;;;5305712;26;20237;-66
2024/04/24 08:01:18;;;;;;;10.47;9.33;;;7.80;50.30;;;;;;5309738;26;20795;-66
2024/04/24 08:03:46;;;;;;;11.13;9.47;;;7.90;50.40;;;;;;5324615;26;20314;-66
2024/04/24 08:06:14;;;;;;;11.80;10.07;;;7.90;49.70;;;;;;5301731;26;20272;-67
2024/04/24 08:08:43;;;;;;;10.20;9.10;;;7.90;50.10;;;;;;5290040;26;20883;-66
2024/04/24 08:11:11;;;;;;;10.00;9.00;;;7.80;48.80;;;;;;5302606;26;20649;-66
2024/04/24 08:13:40;;;;;;;10.17;9.03;;;7.90;49.70;;;;;;5302336;26;20332;-66
2024/04/24 08:16:08;;;;;;;10.80;8.83;;;7.90;49.80;;;;;;5281439;26;20320;-66
2024/04/24 08:18:36;;;;;;;11.50;8.97;;;8.00;50.00;;;;;;5294590;26;20238;-67
2024/04/24 08:21:04;;;;;;;10.37;9.37;;;7.80;48.20;;;;;;5303822;26;20309;-66
2024/04/24 08:23:33;;;;;;;10.07;8.67;;;8.10;49.00;;;;;;5294894;26;20721;-66
2024/04/24 08:26:02;;;;;;;9.30;8.40;;;8.20;47.40;;;;;;5301827;26;20251;-66
2024/04/24 08:28:30;;;;;;;9.10;8.20;;;8.60;47.10;;;;;;5295508;26;20276;-66
2024/04/24 08:30:58;;;;;;;9.47;8.53;;;8.90;45.70;;;;;;5286971;26;20316;-66
2024/04/24 08:33:27;;;;;;;8.93;8.10;;;8.70;46.30;;;;;;5314093;26;20308;-66
2024/04/24 08:35:55;;;;;;;9.37;8.47;;;8.70;47.10;;;;;;5288257;26;20806;-66
2024/04/24 08:38:23;;;;;;;10.17;9.13;;;8.60;47.00;;;;;;5327679;26;20301;-66
2024/04/24 08:40:52;;;;;;;10.10;8.70;;;8.80;46.00;;;;;;5344234;26;20348;-66
2024/04/24 08:43:20;;;;;;;10.40;9.30;;;8.60;46.50;;;;;;5344131;26;20357;-66
2024/04/24 08:45:48;;;;;;;9.13;8.23;;;8.60;46.80;;;;;;5317974;26;20734;-66
2024/04/24 08:48:16;;;;;;;9.40;8.50;;;8.80;45.50;;;;;;5304029;26;20699;-66
2024/04/24 08:50:45;;;;;;;10.20;9.20;;;8.60;46.60;;;;;;5325890;26;28646;-66
2024/04/24 08:53:13;;;;;;;9.57;8.67;;;8.20;46.50;;;;;;5308997;26;20711;-66
2024/04/24 08:55:41;;;;;;;9.67;8.67;;;8.50;46.70;;;;;;5309107;26;20309;-66
2024/04/24 08:58:09;;;;;;;9.73;8.80;;;8.90;46.00;;;;;;5338706;26;20591;-66
2024/04/24 09:00:35;;;;;;;9.80;8.50;;;9.10;44.70;;;;;;5328967;26;20641;-65
2024/04/24 09:03:05;;;;;;;8.73;7.60;;;9.00;44.30;;;;;;5320127;26;20254;-66
2024/04/24 09:05:34;;;;;;;7.03;6.33;;;9.10;44.50;;;;;;5295577;26;20258;-66
2024/04/24 09:08:02;;;;;;;7.77;6.20;;;9.10;40.30;;;;;;5322162;26;20308;-66
2024/04/24 09:10:30;;;;;;;7.10;6.40;;;8.90;39.30;;;;;;5307944;26;20305;-66
2024/04/24 09:12:58;;;;;;;6.37;5.77;;;8.60;40.60;;;;;;5288333;26;20571;-66
2024/04/24 09:15:26;;;;;;;6.80;6.20;;;8.60;39.70;;;;;;5290462;26;21070;-67
2024/04/24 09:17:55;;;;;;;6.63;6.00;;;8.50;39.60;;;;;;5282886;26;20255;-65
2024/04/24 09:20:23;;;;;;;6.47;5.87;;;8.40;37.70;;;;;;5262133;26;20263;-65
2024/04/24 09:22:51;;;;;;;8.73;6.30;;;8.30;38.50;;;;;;5267927;26;20595;-65
2024/04/24 09:25:19;;;;;;;7.00;6.30;;;8.30;38.80;;;;;;5265356;26;20257;-65
2024/04/24 09:27:48;;;;;;;6.80;6.10;;;8.10;38.90;;;;;;5274253;26;20354;-65
2024/04/24 09:30:16;;;;;;;7.30;6.60;;;8.10;40.10;;;;;;5267877;26;22342;-65
2024/04/24 09:32:44;;;;;;;7.07;6.37;;;7.90;39.80;;;;;;5276366;26;20317;-65
2024/04/24 09:35:12;;;;;;;7.73;6.97;;;7.70;41.90;;;;;;5230656;26;20249;-65
2024/04/24 09:37:41;;;;;;;8.63;7.20;;;7.70;42.90;;;;;;5216727;26;20672;-65
2024/04/24 09:40:10;;;;;;;7.27;6.57;;;7.60;43.50;;;;;;5253504;26;20744;-65
2024/04/24 09:42:38;;;;;;;7.90;7.20;;;7.70;43.30;;;;;;5269102;26;20304;-65
2024/04/24 09:45:06;;;;;;;7.70;6.63;;;7.70;43.60;;;;;;5267760;26;20264;-64
2024/04/24 09:47:34;;;;;;;8.10;7.07;;;7.80;43.60;;;;;;5312104;26;20304;-64
2024/04/24 09:50:00;;;;;;;6.90;6.20;;;7.80;44.20;;;;;;5303098;26;20358;-64
2024/04/24 09:52:28;;;;;;;7.43;6.63;;;7.70;41.60;;;;;;5284316;26;20670;-65
2024/04/24 09:54:57;;;;;;;7.23;6.53;;;7.50;43.40;;;;;;5318356;26;20297;-65
2024/04/24 09:57:25;;;;;;;7.33;6.63;;;7.40;46.00;;;;;;5296527;26;20250;-64
2024/04/24 09:59:54;;;;;;;7.27;5.87;;;7.40;47.00;;;;;;5316546;26;20304;-65
2024/04/24 10:02:22;;;;;;;7.17;6.47;;;7.30;47.80;;;;;;5296895;26;20601;-64
2024/04/24 10:04:50;;;;;;;7.13;6.43;;;7.50;47.50;;;;;;5327514;26;20287;-64
2024/04/24 10:07:18;;;;;;;6.93;6.23;;;8.00;46.40;;;;;;5322133;26;20844;-64
2024/04/24 10:09:47;;;;;;;13.90;10.10;;;8.80;44.70;;;;;;5314629;26;20297;-65
2024/04/24 10:12:15;;;;;;;11.27;9.33;;;9.70;42.70;;;;;;5320121;26;20770;-65
2024/04/24 10:14:43;;;;;;;7.53;6.67;;;10.60;41.70;;;;;;5287768;26;20242;-66
2024/04/24 10:17:11;;;;;;;6.07;5.50;;;11.00;38.20;;;;;;5299359;26;20247;-65
2024/04/24 10:19:40;;;;;;;6.93;5.67;;;10.30;36.10;;;;;;5304559;26;20272;-65
2024/04/24 10:22:08;;;;;;;6.50;5.47;;;10.00;37.70;;;;;;5301202;26;20250;-65
2024/04/24 10:24:36;;;;;;;5.83;5.27;;;10.20;36.60;;;;;;5302019;26;20795;-65
2024/04/24 10:27:05;;;;;;;6.20;5.20;;;10.30;34.60;;;;;;5318773;26;20676;-65
2024/04/24 10:29:33;;;;;;;6.20;5.60;;;10.20;35.40;;;;;;5305709;26;20328;-65
2024/04/24 10:32:01;;;;;;;5.93;5.40;;;9.80;37.90;;;;;;5289122;26;20271;-66
2024/04/24 10:34:29;;;;;;;6.30;5.37;;;10.00;36.50;;;;;;5314232;26;20314;-65
2024/04/24 10:36:58;;;;;;;6.17;5.20;;;10.70;36.60;;;;;;5306376;26;20316;-66
2024/04/24 10:39:27;;;;;;;7.40;5.70;;;12.00;34.40;;;;;;5291934;26;20262;-65
2024/04/24 10:41:55;;;;;;;5.90;5.30;;;11.60;33.60;;;;;;5305534;26;20312;-66
2024/04/24 10:44:23;;;;;;;6.20;5.60;;;10.20;35.40;;;;;;5313699;26;20252;-65
2024/04/24 10:46:51;;;;;;;7.90;5.83;;;10.40;35.10;;;;;;5298218;26;20253;-65
2024/04/24 10:49:20;;;;;;;6.00;5.40;;;10.60;34.50;;;;;;5293362;26;20612;-66
2024/04/24 10:51:49;;;;;;;6.13;5.53;;;10.60;35.20;;;;;;5283475;26;20355;-66
2024/04/24 10:54:17;;;;;;;6.33;5.50;;;10.70;34.40;;;;;;5314787;26;20246;-66
2024/04/24 10:56:45;;;;;;;6.13;4.87;;;11.10;34.10;;;;;;5297783;26;20319;-66
2024/04/24 10:59:13;;;;;;;6.33;5.57;;;11.20;34.40;;;;;;5316134;26;20383;-66
2024/04/24 11:01:42;;;;;;;8.13;5.10;;;11.00;33.50;;;;;;5309129;26;20315;-66
2024/04/24 11:04:11;;;;;;;6.70;5.27;;;11.70;33.30;;;;;;5310623;26;20283;-66
2024/04/24 11:06:39;;;;;;;4.93;4.53;;;12.10;32.30;;;;;;5309382;26;20249;-66
2024/04/24 11:09:07;;;;;;;5.03;4.60;;;11.80;32.10;;;;;;5319445;26;20242;-66
2024/04/24 11:11:35;;;;;;;5.00;4.60;;;12.30;32.30;;;;;;5317452;26;20629;-66
2024/04/24 11:14:04;;;;;;;5.90;4.97;;;12.40;29.00;;;;;;5304569;26;20254;-65
2024/04/24 11:16:29;;;;;;;5.27;4.87;;;12.10;31.00;;;;;;5297262;26;20589;-66
2024/04/24 11:18:57;;;;;;;5.13;4.30;;;12.20;29.90;;;;;;5299567;26;20796;-66
2024/04/24 11:21:26;;;;;;;4.60;4.20;;;12.80;29.70;;;;;;5300313;26;20322;-66
2024/04/24 11:23:56;;;;;;;4.83;4.43;;;13.00;28.80;;;;;;5281684;26;20701;-66
2024/04/24 11:26:24;;;;;;;4.77;3.93;;;13.60;28.20;;;;;;5311215;26;20294;-65
2024/04/24 11:28:52;;;;;;;4.50;4.10;;;15.00;26.30;;;;;;5301771;26;20297;-66
2024/04/24 11:31:20;;;;;;;5.80;4.03;;;14.90;25.40;;;;;;5303072;26;20292;-65
2024/04/24 11:33:49;;;;;;;4.43;4.07;;;16.30;24.60;;;;;;5302595;26;20743;-65
2024/04/24 11:36:17;;;;;;;4.87;4.13;;;16.80;23.60;;;;;;5297524;26;20254;-64
2024/04/24 11:38:45;;;;;;;3.50;3.17;;;19.60;21.80;;;;;;5294412;26;20343;-64
2024/04/24 11:41:13;;;;;;;3.63;3.05;;;18.20;20.80;;;;;;5301194;26;20325;-65
2024/04/24 11:43:42;;;;;;;3.88;3.20;;;19.00;22.50;;;;;;5311947;26;20372;-65
2024/04/24 11:46:10;;;;;;;3.35;3.05;;;18.20;21.70;;;;;;5307077;26;20281;-65
2024/04/24 11:48:39;;;;;;;3.50;3.20;;;16.00;23.00;;;;;;5326495;26;20473;-64
2024/04/24 11:51:07;;;;;;;4.57;3.70;;;13.00;26.20;;;;;;5302573;26;20806;-64
2024/04/24 11:53:35;;;;;;;3.80;3.50;;;11.60;29.00;;;;;;5315820;26;20308;-64
2024/04/24 11:56:04;;;;;;;4.27;3.87;;;10.50;33.60;;;;;;5307746;26;20252;-64
2024/04/24 11:58:32;;;;;;;6.27;4.13;;;9.50;38.90;;;;;;5302193;26;20243;-66
2024/04/24 12:01:00;;;;;;;5.60;4.10;;;9.20;39.20;;;;;;5311636;26;20262;-66
2024/04/24 12:03:28;;;;;;;4.27;3.87;;;9.20;39.20;;;;;;5298810;26;20310;-65
2024/04/24 12:05:54;;;;;;;4.37;3.97;;;9.70;38.10;;;;;;5278481;26;20315;-65
2024/04/24 12:08:22;;;;;;;4.10;3.50;;;10.40;37.60;;;;;;5299035;26;20263;-68
2024/04/24 12:10:50;;;;;;;7.17;3.60;;;11.30;36.10;;;;;;5287790;26;20635;-65
2024/04/24 12:13:17;;;;;;;4.13;3.83;;;11.70;35.00;;;;;;5306146;26;20239;-66
2024/04/24 12:15:46;;;;;;;5.23;3.90;;;11.70;34.40;;;;;;5306814;26;20282;-66
2024/04/24 12:18:14;;;;;;;3.93;3.63;;;11.10;33.90;;;;;;5309959;26;20246;-66
2024/04/24 12:20:42;;;;;;;5.13;4.50;;;10.70;34.80;;;;;;5304336;26;20293;-66
2024/04/24 12:23:10;;;;;;;4.73;4.33;;;10.50;35.70;;;;;;5300917;26;20263;-66
2024/04/24 12:25:39;;;;;;;4.67;4.27;;;10.60;36.20;;;;;;5302057;26;20247;-65
2024/04/24 12:28:07;;;;;;;4.23;3.70;;;11.20;36.30;;;;;;5307330;26;20282;-65
2024/04/24 12:30:36;;;;;;;4.60;4.03;;;11.90;36.20;;;;;;5294802;26;20246;-65
2024/04/24 12:33:04;;;;;;;4.13;3.83;;;11.90;33.70;;;;;;5324102;26;20355;-66
2024/04/24 12:35:34;;;;;;;4.50;4.10;;;11.80;32.40;;;;;;5650741;21;20258;-67
2024/04/24 12:38:02;;;;;;;4.73;3.37;;;11.80;32.10;;;;;;5310831;26;20718;-65
2024/04/24 12:40:32;;;;;;;4.07;3.77;;;11.80;31.20;;;;;;5285277;26;20245;-68
2024/04/24 12:43:00;;;;;;;3.80;3.43;;;12.00;31.40;;;;;;5294441;26;20248;-64
2024/04/24 12:45:28;;;;;;;4.30;3.90;;;11.90;31.10;;;;;;5280578;27;20284;-65
2024/04/24 12:47:56;;;;;;;4.73;4.33;;;11.60;31.80;;;;;;5287371;27;20251;-65
2024/04/24 12:50:24;;;;;;;4.90;4.40;;;11.50;32.70;;;;;;5270149;27;20249;-65
2024/04/24 12:52:53;;;;;;;4.50;4.10;;;11.20;31.70;;;;;;5272875;26;20266;-66
2024/04/24 12:55:21;;;;;;;4.27;3.87;;;10.90;31.30;;;;;;5287740;27;20727;-65
2024/04/24 12:57:47;;;;;;;7.23;4.43;;;10.60;32.90;;;;;;5288915;27;20350;-65
2024/04/24 13:00:15;;;;;;;4.77;4.30;;;10.60;33.40;;;;;;5288580;27;20617;-64
2024/04/24 13:02:43;;;;;;;7.33;5.97;;;10.30;33.80;;;;;;5277487;26;20302;-64
2024/04/24 13:05:11;;;;;;;5.10;4.47;;;10.20;34.60;;;;;;5274470;27;20704;-65
2024/04/24 13:07:40;;;;;;;5.30;4.80;;;10.10;35.50;;;;;;5287608;27;20302;-65
2024/04/24 13:10:08;;;;;;;4.80;4.40;;;10.30;34.80;;;;;;5269801;27;20269;-65